Time;durP1;ratioP1;P1;durP2;ratioP2;P2;SDS_P1;SDS_P2;PMS_P1;PMS_P2;Temp;Humidity;BMP_temperature;BMP_pressure;BME280_temperature;BME280_humidity;BME280_pressure;Samples;Min_cycle;Max_cycle;Signal;HPM_P1;HPM_P2
2022/07/29 00:01:31;;;;;;;2.57;1.80;;;25.90;55.50;;;;;;4974402;28;20453;-72
2022/07/29 00:03:57;;;;;;;2.53;1.60;;;25.90;55.50;;;;;;4941494;28;20209;-72
2022/07/29 00:06:23;;;;;;;3.20;1.77;;;25.90;55.50;;;;;;4957162;28;20481;-72
2022/07/29 00:08:51;;;;;;;2.50;1.70;;;25.90;55.50;;;;;;4972153;28;20183;-72
2022/07/29 00:11:20;;;;;;;3.93;2.07;;;25.90;55.60;;;;;;4973059;28;20478;-72
2022/07/29 00:13:48;;;;;;;2.53;1.60;;;25.80;55.50;;;;;;4973026;28;20481;-72
2022/07/29 00:16:14;;;;;;;3.50;2.30;;;25.80;55.50;;;;;;4973419;28;20628;-72
2022/07/29 00:18:43;;;;;;;3.60;1.77;;;25.80;55.50;;;;;;4972808;28;20536;-72
2022/07/29 00:21:11;;;;;;;2.13;1.87;;;25.80;55.50;;;;;;4972669;28;21138;-72
2022/07/29 00:23:42;;;;;;;2.57;1.60;;;25.80;55.50;;;;;;4972645;28;20436;-72
2022/07/29 00:26:15;;;;;;;2.90;1.60;;;25.80;56.10;;;;;;4972303;28;20461;-72
2022/07/29 00:28:41;;;;;;;4.30;1.70;;;25.80;55.50;;;;;;4974195;28;20411;-72
2022/07/29 00:31:09;;;;;;;2.30;1.47;;;25.70;55.40;;;;;;4973224;28;20442;-72
2022/07/29 00:33:35;;;;;;;2.40;1.43;;;25.70;55.50;;;;;;4956772;28;20422;-72
2022/07/29 00:36:21;;;;;;;4.50;1.60;;;25.70;55.50;;;;;;4967318;28;20468;-72
2022/07/29 00:38:50;;;;;;;2.57;1.83;;;25.70;55.60;;;;;;4973015;28;20438;-72
2022/07/29 00:41:17;;;;;;;1.80;1.70;;;25.70;55.50;;;;;;4972780;28;20975;-72
2022/07/29 00:43:44;;;;;;;4.80;2.20;;;25.70;55.50;;;;;;4972314;28;20409;-71
2022/07/29 00:46:11;;;;;;;4.10;1.73;;;25.70;55.50;;;;;;4951505;29;20987;-72
2022/07/29 00:48:37;;;;;;;2.90;1.80;;;25.60;55.50;;;;;;4952599;29;20397;-71
2022/07/29 00:51:07;;;;;;;1.73;1.50;;;25.60;55.50;;;;;;4954987;28;20462;-72
2022/07/29 00:53:38;;;;;;;2.57;1.70;;;25.60;55.50;;;;;;4953429;29;20411;-72
2022/07/29 00:56:04;;;;;;;2.87;1.40;;;25.60;55.50;;;;;;4970900;28;20443;-72
2022/07/29 00:58:34;;;;;;;4.17;1.90;;;25.60;55.50;;;;;;4972699;28;20931;-72
2022/07/29 01:01:00;;;;;;;2.57;1.80;;;25.60;55.50;;;;;;4972384;28;20481;-72
2022/07/29 01:03:31;;;;;;;1.67;1.53;;;25.60;55.60;;;;;;4972976;28;20422;-72
2022/07/29 01:05:57;;;;;;;1.93;1.70;;;25.60;55.50;;;;;;4972479;28;20449;-72
2022/07/29 01:08:27;;;;;;;1.90;1.60;;;25.60;55.50;;;;;;4956874;28;20445;-72
2022/07/29 01:10:53;;;;;;;1.57;1.47;;;25.60;55.60;;;;;;4972591;28;20473;-72
2022/07/29 01:13:23;;;;;;;3.73;1.80;;;25.50;55.50;;;;;;4973154;28;20442;-72
2022/07/29 01:16:01;;;;;;;2.90;1.50;;;25.50;55.50;;;;;;4972715;28;20445;-72
2022/07/29 01:18:45;;;;;;;2.37;1.73;;;25.50;55.50;;;;;;4973357;28;20930;-73
2022/07/29 01:21:32;;;;;;;5.50;1.90;;;25.50;55.60;;;;;;4956442;28;20458;-72
2022/07/29 01:24:36;;;;;;;2.63;1.40;;;25.50;55.50;;;;;;4973486;28;20478;-72
2022/07/29 01:27:43;;;;;;;4.63;2.10;;;25.50;55.60;;;;;;4961337;28;20457;-73
2022/07/29 01:30:10;;;;;;;2.70;1.80;;;25.50;55.60;;;;;;4936077;28;20472;-72
2022/07/29 01:32:40;;;;;;;4.23;1.80;;;25.40;55.60;;;;;;4972955;28;20926;-72
2022/07/29 01:35:26;;;;;;;3.77;2.00;;;25.40;55.70;;;;;;4972705;28;20955;-72
2022/07/29 01:38:11;;;;;;;3.00;1.73;;;25.40;55.70;;;;;;4955879;28;20414;-72
2022/07/29 01:40:47;;;;;;;2.47;2.00;;;25.40;55.70;;;;;;4972345;28;20450;-71
2022/07/29 01:43:19;;;;;;;2.90;1.90;;;25.40;55.70;;;;;;4972507;28;20499;-72
2022/07/29 01:45:51;;;;;;;3.70;1.90;;;25.40;55.80;;;;;;4973453;28;20478;-72
2022/07/29 01:48:42;;;;;;;4.50;2.30;;;25.40;55.80;;;;;;4972195;28;20421;-72
2022/07/29 01:51:17;;;;;;;2.80;1.93;;;25.30;55.80;;;;;;4967131;28;20900;-72
2022/07/29 01:53:59;;;;;;;2.37;2.07;;;25.30;55.80;;;;;;4972415;28;20500;-72
2022/07/29 01:56:33;;;;;;;3.93;2.20;;;25.30;55.90;;;;;;4956645;28;20462;-72
2022/07/29 01:59:04;;;;;;;3.60;2.67;;;25.30;55.90;;;;;;4973165;28;20422;-71
2022/07/29 02:01:32;;;;;;;4.07;2.30;;;25.30;55.90;;;;;;4972033;28;20439;-72
2022/07/29 02:04:02;;;;;;;4.70;2.53;;;25.30;55.90;;;;;;4952951;29;20856;-72
2022/07/29 02:06:32;;;;;;;4.60;2.67;;;25.30;56.00;;;;;;4954039;29;20550;-72
2022/07/29 02:09:02;;;;;;;3.63;2.07;;;25.20;55.90;;;;;;4967621;28;20422;-72
2022/07/29 02:11:31;;;;;;;3.00;2.00;;;25.20;56.00;;;;;;4971975;28;20508;-72
2022/07/29 02:13:59;;;;;;;3.73;2.77;;;25.20;56.00;;;;;;4971954;28;20418;-72
2022/07/29 02:16:32;;;;;;;2.77;2.40;;;25.30;56.10;;;;;;4972619;28;20954;-72
2022/07/29 02:19:06;;;;;;;2.60;2.40;;;25.30;56.10;;;;;;4973320;28;20524;-72
2022/07/29 02:21:36;;;;;;;3.07;2.77;;;25.20;56.10;;;;;;4953057;28;20465;-72
2022/07/29 02:24:05;;;;;;;5.40;2.70;;;25.20;56.10;;;;;;4959965;28;20429;-72
2022/07/29 02:26:33;;;;;;;3.30;2.57;;;25.20;56.20;;;;;;4971681;28;20450;-71
2022/07/29 02:29:01;;;;;;;4.17;2.90;;;25.20;56.20;;;;;;4972970;28;20417;-72
2022/07/29 02:31:34;;;;;;;3.10;2.80;;;25.20;56.10;;;;;;4972555;28;20445;-72
2022/07/29 02:34:05;;;;;;;3.63;2.87;;;25.20;56.20;;;;;;4976806;28;20397;-72
2022/07/29 02:36:33;;;;;;;3.00;2.67;;;25.20;56.20;;;;;;4959241;28;20449;-72
2022/07/29 02:39:03;;;;;;;3.80;3.40;;;25.20;56.30;;;;;;4976037;28;20461;-71
2022/07/29 02:42:01;;;;;;;4.10;3.27;;;25.10;56.20;;;;;;4974881;28;20536;-72
2022/07/29 02:44:29;;;;;;;3.40;3.10;;;25.10;56.20;;;;;;4976564;28;20434;-72
2022/07/29 02:47:07;;;;;;;4.30;2.60;;;25.10;56.20;;;;;;4975168;28;20465;-72
2022/07/29 02:49:47;;;;;;;7.43;3.50;;;25.10;56.30;;;;;;4974907;28;21075;-72
2022/07/29 02:52:23;;;;;;;3.37;2.70;;;25.10;56.20;;;;;;4974864;28;20966;-72
2022/07/29 02:54:52;;;;;;;3.67;2.60;;;25.10;56.30;;;;;;4974954;28;20440;-72
2022/07/29 02:57:22;;;;;;;3.87;3.00;;;25.10;56.30;;;;;;4976181;28;20497;-72
2022/07/29 02:59:52;;;;;;;4.43;2.87;;;25.00;56.20;;;;;;4955329;29;20431;-72
2022/07/29 03:02:23;;;;;;;5.63;2.90;;;25.00;56.30;;;;;;4939872;29;20795;-72
2022/07/29 03:04:51;;;;;;;3.80;2.77;;;25.00;56.30;;;;;;4968494;28;20434;-72
2022/07/29 03:07:20;;;;;;;3.23;2.53;;;25.00;56.30;;;;;;4955284;29;20487;-72
2022/07/29 03:09:52;;;;;;;3.00;2.60;;;25.00;56.30;;;;;;4968600;28;20454;-72
2022/07/29 03:12:19;;;;;;;2.60;2.37;;;25.00;56.30;;;;;;4974074;28;20448;-72
2022/07/29 03:14:46;;;;;;;5.93;2.90;;;25.00;56.30;;;;;;4974820;28;20962;-72
2022/07/29 03:17:16;;;;;;;2.57;2.20;;;25.00;56.30;;;;;;4974614;28;20437;-72
2022/07/29 03:19:50;;;;;;;4.33;2.53;;;25.00;56.30;;;;;;4975735;28;20497;-72
2022/07/29 03:22:19;;;;;;;2.10;1.90;;;25.00;56.30;;;;;;4976151;28;20422;-72
2022/07/29 03:24:47;;;;;;;3.10;2.20;;;24.90;56.30;;;;;;4958105;28;20799;-72
2022/07/29 03:27:13;;;;;;;3.40;2.30;;;24.90;56.30;;;;;;4974659;28;20660;-72
2022/07/29 03:29:59;;;;;;;3.00;2.00;;;24.90;56.40;;;;;;4954428;28;20430;-72
2022/07/29 03:32:25;;;;;;;3.90;2.50;;;24.90;56.30;;;;;;4939532;29;20408;-72
2022/07/29 03:34:55;;;;;;;2.80;2.10;;;24.90;56.30;;;;;;4973971;28;20426;-71
2022/07/29 03:37:21;;;;;;;4.53;2.20;;;24.90;56.30;;;;;;4958246;28;20430;-71
2022/07/29 03:39:52;;;;;;;3.00;2.40;;;24.90;56.30;;;;;;4975157;28;20425;-71
2022/07/29 03:42:23;;;;;;;2.13;1.63;;;24.90;56.30;;;;;;4974196;28;20775;-72
2022/07/29 03:44:55;;;;;;;2.73;2.40;;;24.90;56.30;;;;;;4971532;28;20508;-72
2022/07/29 03:47:27;;;;;;;2.47;1.93;;;24.80;56.80;;;;;;4985866;28;20584;-72
2022/07/29 03:49:59;;;;;;;3.50;1.90;;;24.90;56.90;;;;;;4974363;28;20993;-71
2022/07/29 03:52:28;;;;;;;4.87;1.90;;;24.80;56.30;;;;;;4958625;28;20430;-72
2022/07/29 03:54:54;;;;;;;2.60;1.67;;;24.80;56.30;;;;;;4974344;28;20426;-73
2022/07/29 03:57:24;;;;;;;2.10;1.60;;;24.80;56.90;;;;;;4973065;28;20438;-72
2022/07/29 03:59:55;;;;;;;4.97;1.70;;;24.80;56.30;;;;;;4972323;28;20438;-71
2022/07/29 04:02:22;;;;;;;2.50;1.53;;;24.80;56.30;;;;;;4973020;28;20448;-72
2022/07/29 04:04:49;;;;;;;4.17;2.30;;;24.80;56.40;;;;;;4974168;28;20446;-73
2022/07/29 04:07:17;;;;;;;2.50;1.87;;;24.70;56.40;;;;;;4974899;28;20485;-73
2022/07/29 04:09:45;;;;;;;3.20;1.80;;;24.70;56.40;;;;;;4975709;28;20399;-73
2022/07/29 04:12:11;;;;;;;2.27;1.77;;;24.70;56.40;;;;;;4973617;28;20442;-72
2022/07/29 04:14:37;;;;;;;1.90;1.70;;;24.70;56.50;;;;;;4973368;28;20411;-72
2022/07/29 04:17:04;;;;;;;2.37;1.97;;;24.70;56.50;;;;;;4973517;28;20428;-72
2022/07/29 04:19:31;;;;;;;1.77;1.50;;;24.70;56.60;;;;;;4973343;28;20481;-73
2022/07/29 04:21:59;;;;;;;1.60;1.40;;;24.70;56.70;;;;;;4973417;28;20469;-72
2022/07/29 04:24:28;;;;;;;3.43;1.70;;;24.70;56.90;;;;;;4973963;28;20488;-72
2022/07/29 04:26:54;;;;;;;5.77;1.80;;;24.60;57.00;;;;;;4973144;28;20453;-72
2022/07/29 04:29:23;;;;;;;2.20;1.70;;;24.60;57.10;;;;;;4955933;28;20457;-70
2022/07/29 04:31:52;;;;;;;5.00;1.60;;;24.70;57.40;;;;;;4974048;28;20438;-73
2022/07/29 04:34:18;;;;;;;2.87;1.87;;;24.60;57.50;;;;;;4957325;28;21160;-72
2022/07/29 04:36:46;;;;;;;3.43;1.43;;;24.60;57.70;;;;;;4973196;28;20468;-72
2022/07/29 04:39:12;;;;;;;2.30;1.70;;;24.60;58.10;;;;;;4973749;28;20454;-72
2022/07/29 04:41:41;;;;;;;6.33;1.80;;;24.60;58.40;;;;;;4953759;28;20447;-72
2022/07/29 04:44:06;;;;;;;3.63;1.63;;;24.50;58.50;;;;;;4961949;28;20438;-72
2022/07/29 04:46:35;;;;;;;3.17;1.93;;;24.60;58.80;;;;;;4968713;28;20210;-72
2022/07/29 04:49:04;;;;;;;3.33;1.87;;;24.50;58.90;;;;;;4964496;28;20426;-72
2022/07/29 04:51:30;;;;;;;2.70;1.70;;;24.50;59.40;;;;;;4972314;28;20465;-72
2022/07/29 04:53:55;;;;;;;2.70;1.60;;;24.50;59.60;;;;;;4972157;28;20501;-72
2022/07/29 04:56:22;;;;;;;4.23;2.17;;;24.50;59.80;;;;;;4972741;28;20517;-72
2022/07/29 04:58:48;;;;;;;3.73;1.90;;;24.50;60.00;;;;;;4972593;28;20182;-72
2022/07/29 05:01:14;;;;;;;3.73;1.83;;;24.50;60.40;;;;;;4972694;28;20445;-73
2022/07/29 05:03:40;;;;;;;2.50;2.07;;;24.50;60.80;;;;;;4973746;28;20410;-73
2022/07/29 05:06:06;;;;;;;2.60;1.80;;;24.40;60.50;;;;;;4972043;28;20959;-72
2022/07/29 05:08:35;;;;;;;7.47;2.13;;;24.40;60.50;;;;;;4973599;28;20438;-72
2022/07/29 05:11:03;;;;;;;3.20;2.27;;;24.40;60.30;;;;;;4956156;28;20450;-72
2022/07/29 05:13:29;;;;;;;2.70;1.80;;;24.40;61.00;;;;;;4972337;28;20418;-72
2022/07/29 05:15:58;;;;;;;2.07;1.87;;;24.40;60.90;;;;;;4973319;28;20489;-72
2022/07/29 05:18:26;;;;;;;2.17;1.53;;;24.40;61.20;;;;;;4973446;28;20785;-72
2022/07/29 05:20:52;;;;;;;2.53;1.87;;;24.40;61.60;;;;;;4972921;28;20465;-71
2022/07/29 05:23:23;;;;;;;2.60;2.07;;;24.40;61.70;;;;;;4971951;28;20422;-72
2022/07/29 05:25:52;;;;;;;3.80;2.20;;;24.40;62.10;;;;;;4971903;28;20505;-71
2022/07/29 05:28:17;;;;;;;3.30;2.10;;;24.30;62.00;;;;;;4970154;28;20483;-72
2022/07/29 05:30:44;;;;;;;3.07;2.40;;;24.30;62.10;;;;;;4973153;28;20958;-72
2022/07/29 05:33:12;;;;;;;7.03;2.20;;;24.30;62.20;;;;;;4973624;28;20888;-73
2022/07/29 05:35:41;;;;;;;2.40;1.90;;;24.30;62.30;;;;;;4971190;28;20413;-73
2022/07/29 05:38:07;;;;;;;3.33;2.30;;;24.30;62.50;;;;;;4951068;28;20473;-74
2022/07/29 05:40:36;;;;;;;2.23;1.90;;;24.30;62.80;;;;;;4952301;28;20451;-73
2022/07/29 05:43:04;;;;;;;4.27;2.30;;;24.20;62.50;;;;;;4971229;28;20449;-73
2022/07/29 05:45:30;;;;;;;2.60;2.00;;;24.20;62.60;;;;;;4980040;28;20983;-73
2022/07/29 05:47:56;;;;;;;2.20;1.90;;;24.20;62.80;;;;;;4956341;28;20425;-71
2022/07/29 05:50:23;;;;;;;2.33;1.90;;;24.20;62.90;;;;;;4972440;28;20464;-71
2022/07/29 05:52:53;;;;;;;4.40;2.40;;;24.20;63.20;;;;;;4972672;28;20398;-72
2022/07/29 05:55:22;;;;;;;2.53;1.67;;;24.20;62.90;;;;;;4956126;28;20442;-72
2022/07/29 05:57:51;;;;;;;3.57;2.47;;;24.20;62.80;;;;;;4971517;28;20439;-72
2022/07/29 06:00:25;;;;;;;3.30;2.03;;;24.20;63.20;;;;;;4968038;28;20458;-72
2022/07/29 06:02:51;;;;;;;3.10;1.60;;;24.20;63.30;;;;;;4940650;28;20445;-72
2022/07/29 06:05:22;;;;;;;3.73;1.80;;;24.20;63.50;;;;;;4989286;28;20409;-72
2022/07/29 06:07:48;;;;;;;5.30;2.07;;;24.10;63.20;;;;;;4995378;28;20456;-70
2022/07/29 06:10:14;;;;;;;4.43;1.80;;;24.10;63.10;;;;;;4994572;28;20963;-70
2022/07/29 06:12:40;;;;;;;3.30;1.93;;;24.10;63.50;;;;;;4991751;28;20410;-70
2022/07/29 06:15:07;;;;;;;2.87;2.20;;;24.10;63.30;;;;;;4955706;29;21015;-70
2022/07/29 06:17:33;;;;;;;3.77;2.10;;;24.10;63.50;;;;;;4978363;28;20978;-69
2022/07/29 06:19:58;;;;;;;4.00;2.17;;;24.10;63.90;;;;;;4976163;28;20413;-70
2022/07/29 06:22:27;;;;;;;2.30;1.80;;;24.10;64.40;;;;;;4973210;28;20445;-69
2022/07/29 06:24:53;;;;;;;4.47;2.00;;;24.10;64.00;;;;;;4976238;28;20202;-69
2022/07/29 06:27:23;;;;;;;2.90;2.00;;;24.10;64.40;;;;;;4974744;28;20519;-69
2022/07/29 06:29:54;;;;;;;2.10;1.60;;;24.10;64.40;;;;;;4974941;28;20450;-70
2022/07/29 06:32:21;;;;;;;2.60;2.20;;;24.00;64.00;;;;;;4974452;28;20527;-70
2022/07/29 06:34:50;;;;;;;3.37;1.73;;;24.00;64.10;;;;;;4974874;28;20920;-69
2022/07/29 06:37:18;;;;;;;4.83;2.07;;;24.00;63.90;;;;;;4975508;28;20457;-69
2022/07/29 06:39:44;;;;;;;2.97;1.80;;;24.00;64.10;;;;;;4974371;28;20426;-70
2022/07/29 06:42:10;;;;;;;2.80;1.80;;;24.00;64.50;;;;;;4974890;28;20456;-69
2022/07/29 06:44:37;;;;;;;2.13;1.67;;;24.00;64.40;;;;;;4974542;28;20825;-70
2022/07/29 06:47:08;;;;;;;3.10;2.03;;;24.00;64.60;;;;;;4965416;28;20462;-69
2022/07/29 06:49:36;;;;;;;3.30;2.40;;;24.00;64.90;;;;;;4975713;28;20963;-69
2022/07/29 06:52:02;;;;;;;2.27;2.07;;;23.90;64.50;;;;;;4975628;28;20533;-69
2022/07/29 06:54:28;;;;;;;2.20;1.90;;;24.00;64.80;;;;;;4954967;29;20467;-69
2022/07/29 06:56:54;;;;;;;2.10;1.60;;;24.00;64.90;;;;;;4954406;28;20465;-69
2022/07/29 06:59:23;;;;;;;2.27;1.97;;;24.00;64.90;;;;;;4974246;28;20454;-69
2022/07/29 07:01:51;;;;;;;2.40;1.93;;;23.90;64.50;;;;;;4975220;28;20520;-69
2022/07/29 07:04:36;;;;;;;2.80;1.80;;;23.90;65.00;;;;;;4975820;28;20461;-69
2022/07/29 07:07:04;;;;;;;3.37;2.00;;;23.90;65.20;;;;;;4974282;28;20477;-69
2022/07/29 07:09:33;;;;;;;3.50;2.07;;;23.90;65.30;;;;;;4974065;28;20837;-69
2022/07/29 07:11:59;;;;;;;2.20;1.90;;;23.90;65.50;;;;;;4973623;28;21057;-70
2022/07/29 07:14:32;;;;;;;4.07;2.03;;;23.90;65.50;;;;;;4975054;28;20433;-69
2022/07/29 07:17:03;;;;;;;2.90;2.00;;;23.90;65.60;;;;;;4973532;28;20473;-72
2022/07/29 07:19:33;;;;;;;3.27;2.00;;;23.80;65.70;;;;;;4938684;28;21002;-72
2022/07/29 07:21:59;;;;;;;3.77;2.33;;;23.80;65.80;;;;;;4970993;28;20525;-72
2022/07/29 07:24:25;;;;;;;3.83;2.10;;;23.80;65.70;;;;;;4954498;29;20863;-73
2022/07/29 07:26:52;;;;;;;4.57;2.33;;;23.80;65.70;;;;;;4971442;28;20536;-73
2022/07/29 07:29:18;;;;;;;3.23;1.87;;;23.80;65.50;;;;;;4973391;28;20537;-72
2022/07/29 07:31:47;;;;;;;4.73;1.87;;;23.80;65.80;;;;;;4955960;28;20435;-72
2022/07/29 07:34:15;;;;;;;2.47;1.80;;;23.80;65.70;;;;;;4973132;28;20466;-72
2022/07/29 07:36:43;;;;;;;3.70;1.60;;;23.80;65.70;;;;;;4971950;28;20450;-72
2022/07/29 07:39:09;;;;;;;2.60;1.90;;;23.80;66.80;;;;;;4972022;28;20951;-70
2022/07/29 07:41:35;;;;;;;3.10;2.00;;;23.70;66.10;;;;;;4957304;28;20497;-72
2022/07/29 07:44:01;;;;;;;2.27;1.73;;;23.70;66.80;;;;;;4974093;28;20807;-69
2022/07/29 07:46:29;;;;;;;3.27;2.30;;;23.70;66.00;;;;;;4973984;28;20199;-71
2022/07/29 07:48:55;;;;;;;3.20;2.00;;;23.70;65.90;;;;;;4973853;28;20442;-70
2022/07/29 07:51:26;;;;;;;2.10;1.70;;;23.70;66.00;;;;;;4973146;28;20493;-70
2022/07/29 07:54:00;;;;;;;3.40;1.97;;;23.70;66.10;;;;;;4973698;28;20417;-70
2022/07/29 07:56:26;;;;;;;3.17;2.33;;;23.70;66.20;;;;;;4969843;28;20506;-70
2022/07/29 07:58:52;;;;;;;2.67;1.50;;;23.70;66.40;;;;;;4956503;28;20407;-71
2022/07/29 08:01:22;;;;;;;3.03;2.10;;;23.70;66.30;;;;;;4972560;28;20450;-71
2022/07/29 08:03:51;;;;;;;2.70;2.00;;;23.70;66.20;;;;;;4955319;28;20492;-69
2022/07/29 08:06:17;;;;;;;4.23;2.17;;;23.70;66.30;;;;;;4969422;28;20458;-70
2022/07/29 08:08:46;;;;;;;2.77;1.77;;;23.70;66.30;;;;;;4971937;28;20417;-72
2022/07/29 08:11:14;;;;;;;2.30;1.70;;;23.70;66.40;;;;;;4971215;28;20434;-70
2022/07/29 08:13:43;;;;;;;3.00;2.07;;;23.70;66.70;;;;;;4972129;28;20446;-69
2022/07/29 08:16:12;;;;;;;6.07;2.30;;;23.70;66.90;;;;;;4971525;28;20445;-68
2022/07/29 08:18:40;;;;;;;3.57;2.23;;;23.60;66.80;;;;;;4957209;28;21077;-69
2022/07/29 08:21:06;;;;;;;2.73;1.80;;;23.60;66.70;;;;;;4972312;28;20540;-71
2022/07/29 08:23:38;;;;;;;2.10;1.70;;;23.60;66.80;;;;;;4953066;29;20782;-69
2022/07/29 08:26:10;;;;;;;3.73;2.03;;;23.60;66.90;;;;;;4964322;28;20469;-69
2022/07/29 08:28:50;;;;;;;2.70;1.90;;;23.60;67.00;;;;;;4971275;28;20466;-71
2022/07/29 08:31:18;;;;;;;2.60;2.10;;;23.60;67.30;;;;;;4969769;28;20458;-69
2022/07/29 08:33:46;;;;;;;2.50;2.03;;;23.60;67.40;;;;;;4965322;28;20480;-69
2022/07/29 08:36:15;;;;;;;2.87;2.33;;;23.60;67.30;;;;;;4972583;28;20539;-69
2022/07/29 08:38:46;;;;;;;2.27;1.87;;;23.60;67.30;;;;;;4971524;28;20524;-69
2022/07/29 08:41:12;;;;;;;2.90;2.30;;;23.60;67.40;;;;;;4971347;28;20842;-69
2022/07/29 08:43:40;;;;;;;3.03;1.83;;;23.60;67.40;;;;;;4969382;28;20458;-69
2022/07/29 08:46:06;;;;;;;4.43;2.00;;;23.60;67.40;;;;;;4971823;28;20458;-69
2022/07/29 08:48:33;;;;;;;2.50;2.17;;;23.60;67.50;;;;;;4969882;28;20568;-69
2022/07/29 08:51:00;;;;;;;3.13;2.20;;;23.60;67.60;;;;;;4972305;28;20453;-69
2022/07/29 08:54:09;;;;;;;2.37;1.90;;;23.50;67.30;;;;;;4952949;28;20447;-69
2022/07/29 08:56:39;;;;;;;3.00;2.50;;;23.50;67.70;;;;;;4937148;28;20532;-69
2022/07/29 08:59:09;;;;;;;3.03;2.10;;;23.50;67.80;;;;;;4943760;28;20764;-69
2022/07/29 09:01:37;;;;;;;3.97;2.07;;;23.50;67.70;;;;;;4948184;28;20821;-69
2022/07/29 09:04:12;;;;;;;2.63;1.60;;;23.40;67.30;;;;;;4955904;28;20560;-69
2022/07/29 09:06:45;;;;;;;2.33;2.00;;;23.50;67.50;;;;;;4971765;28;20466;-69
2022/07/29 09:09:11;;;;;;;2.13;1.90;;;23.50;67.90;;;;;;4971690;28;20418;-69
2022/07/29 09:11:41;;;;;;;3.97;2.40;;;23.50;67.90;;;;;;4980838;28;20466;-69
2022/07/29 09:14:13;;;;;;;4.57;2.83;;;23.40;67.70;;;;;;4970616;28;20481;-69
2022/07/29 09:16:55;;;;;;;2.80;2.10;;;23.40;67.60;;;;;;4955480;28;20430;-69
2022/07/29 09:19:34;;;;;;;3.57;2.10;;;23.40;67.60;;;;;;4972226;28;20797;-69
2022/07/29 09:22:09;;;;;;;2.63;2.07;;;23.40;67.80;;;;;;4963674;28;20464;-69
2022/07/29 09:24:46;;;;;;;3.13;2.23;;;23.40;67.90;;;;;;4971602;28;20509;-69
2022/07/29 09:27:21;;;;;;;3.80;2.23;;;23.40;69.10;;;;;;4972307;28;20957;-69
2022/07/29 09:30:01;;;;;;;3.30;2.13;;;23.40;68.30;;;;;;4972239;28;20424;-69
2022/07/29 09:32:28;;;;;;;2.90;2.60;;;23.40;68.20;;;;;;4971200;28;20419;-69
2022/07/29 09:35:17;;;;;;;3.47;2.43;;;23.40;68.30;;;;;;4967455;28;20473;-70
2022/07/29 09:37:44;;;;;;;4.60;1.90;;;23.40;68.20;;;;;;4978171;28;20418;-69
2022/07/29 09:40:23;;;;;;;2.80;2.00;;;23.30;68.10;;;;;;4972948;28;20427;-70
2022/07/29 09:42:50;;;;;;;6.23;2.50;;;23.40;68.30;;;;;;4973568;28;20461;-69
2022/07/29 09:45:35;;;;;;;3.20;2.40;;;23.40;68.50;;;;;;4974495;28;20990;-68
2022/07/29 09:48:15;;;;;;;2.80;2.07;;;23.30;68.20;;;;;;4975135;28;20489;-71
2022/07/29 09:50:43;;;;;;;4.07;2.53;;;23.30;68.30;;;;;;4974836;28;20470;-71
2022/07/29 09:53:13;;;;;;;2.87;2.43;;;23.30;68.30;;;;;;4976168;28;20417;-71
2022/07/29 09:55:49;;;;;;;2.60;2.10;;;23.30;68.30;;;;;;4976286;28;21022;-71
2022/07/29 09:58:20;;;;;;;5.03;2.50;;;23.30;68.50;;;;;;4973507;28;20982;-70
2022/07/29 10:00:47;;;;;;;3.70;2.27;;;23.30;68.80;;;;;;4973489;28;20450;-70
2022/07/29 10:03:18;;;;;;;4.80;2.93;;;23.30;68.90;;;;;;4973114;28;20457;-70
2022/07/29 10:05:45;;;;;;;2.93;2.30;;;23.30;68.60;;;;;;4970695;28;20474;-70
2022/07/29 10:08:12;;;;;;;3.20;2.27;;;23.30;68.50;;;;;;4973043;28;20506;-70
2022/07/29 10:10:42;;;;;;;5.00;3.13;;;23.30;68.70;;;;;;4970254;28;20548;-70
2022/07/29 10:13:12;;;;;;;3.10;2.50;;;23.30;68.90;;;;;;4940287;29;20434;-71
2022/07/29 10:15:43;;;;;;;5.57;2.60;;;23.30;68.70;;;;;;4974910;28;20452;-70
2022/07/29 10:18:10;;;;;;;4.30;3.40;;;23.30;68.70;;;;;;4973642;28;20476;-69
2022/07/29 10:20:37;;;;;;;2.70;2.50;;;23.30;68.70;;;;;;4974499;28;20924;-72
2022/07/29 10:23:09;;;;;;;3.57;2.30;;;23.30;68.70;;;;;;4972033;28;20445;-71
2022/07/29 10:25:37;;;;;;;3.50;2.67;;;23.30;68.80;;;;;;4973321;28;20473;-71
2022/07/29 10:28:05;;;;;;;5.10;2.20;;;23.30;68.80;;;;;;4972859;28;20525;-70
2022/07/29 10:30:34;;;;;;;4.77;2.20;;;23.30;68.50;;;;;;4940048;28;22268;-71
2022/07/29 10:33:41;;;;;;;3.30;2.60;;;23.30;68.60;;;;;;4953605;28;20430;-71
2022/07/29 10:36:31;;;;;;;4.23;2.83;;;23.30;68.50;;;;;;4971098;28;20476;-71
2022/07/29 10:39:38;;;;;;;2.83;2.40;;;23.30;68.50;;;;;;4970211;28;20794;-71
2022/07/29 10:42:23;;;;;;;2.67;2.40;;;23.30;68.30;;;;;;4950237;28;20512;-71
2022/07/29 10:44:52;;;;;;;3.57;2.50;;;23.30;68.30;;;;;;4954478;28;20445;-71
2022/07/29 10:47:21;;;;;;;2.50;2.30;;;23.30;68.30;;;;;;4939815;28;20887;-73
2022/07/29 10:50:02;;;;;;;2.90;2.13;;;23.30;68.40;;;;;;4955887;28;20863;-71
2022/07/29 10:52:49;;;;;;;3.23;2.57;;;23.30;68.10;;;;;;4970284;28;20943;-70
2022/07/29 10:55:42;;;;;;;2.90;2.20;;;23.40;68.00;;;;;;4942545;29;20442;-70
2022/07/29 10:58:16;;;;;;;4.20;2.80;;;23.40;68.10;;;;;;4948348;28;20858;-71
2022/07/29 11:00:49;;;;;;;3.70;2.60;;;23.40;68.10;;;;;;4941326;28;20458;-71
2022/07/29 11:03:53;;;;;;;3.60;2.50;;;23.30;67.80;;;;;;4956171;28;20971;-71
2022/07/29 11:06:21;;;;;;;3.50;2.60;;;23.40;67.80;;;;;;4969127;28;21009;-71
2022/07/29 11:09:18;;;;;;;4.67;2.80;;;23.40;68.20;;;;;;4970793;28;20450;-72
2022/07/29 11:12:02;;;;;;;4.77;2.63;;;23.40;68.40;;;;;;4972113;28;21003;-72
2022/07/29 11:15:18;;;;;;;3.37;2.60;;;23.40;69.40;;;;;;4972249;28;20631;-70
2022/07/29 11:17:52;;;;;;;3.87;2.73;;;23.50;68.80;;;;;;4910448;29;20448;-70
2022/07/29 11:20:41;;;;;;;5.57;3.07;;;23.50;68.70;;;;;;4932391;29;20451;-71
2022/07/29 11:23:42;;;;;;;4.03;2.90;;;23.50;68.50;;;;;;4916077;29;20444;-72
2022/07/29 11:26:24;;;;;;;8.10;3.67;;;23.60;68.40;;;;;;4911482;29;20557;-70
2022/07/29 11:28:51;;;;;;;3.63;3.00;;;23.50;68.20;;;;;;4929119;29;20630;-71
2022/07/29 11:31:34;;;;;;;3.03;2.67;;;23.60;68.50;;;;;;4932261;29;20463;-70
2022/07/29 11:34:25;;;;;;;6.73;2.70;;;23.60;68.30;;;;;;4932000;29;20562;-71
2022/07/29 11:37:09;;;;;;;7.60;2.37;;;23.60;68.10;;;;;;4920547;29;20457;-71
2022/07/29 11:39:56;;;;;;;3.60;2.97;;;23.60;67.80;;;;;;4916737;29;20467;-71
2022/07/29 11:42:24;;;;;;;5.60;2.80;;;23.60;67.60;;;;;;4900265;29;20554;-70
2022/07/29 11:44:53;;;;;;;3.87;2.80;;;23.60;67.70;;;;;;4899871;29;20444;-71
2022/07/29 11:47:22;;;;;;;5.70;3.17;;;23.60;67.80;;;;;;4911805;29;20466;-69
2022/07/29 11:49:53;;;;;;;3.63;2.70;;;23.70;67.90;;;;;;4972584;28;20436;-69
2022/07/29 11:52:42;;;;;;;5.83;2.83;;;23.70;67.80;;;;;;4971330;28;20801;-69
2022/07/29 11:55:17;;;;;;;3.37;2.77;;;23.70;67.40;;;;;;4969862;28;20448;-67
2022/07/29 11:58:23;;;;;;;4.40;3.10;;;23.70;67.40;;;;;;4964669;28;20416;-69
2022/07/29 12:00:49;;;;;;;6.43;2.60;;;23.70;67.30;;;;;;4971515;28;20507;-69
2022/07/29 12:03:28;;;;;;;4.70;3.07;;;23.70;67.10;;;;;;4971332;28;20422;-70
2022/07/29 12:05:59;;;;;;;4.03;2.67;;;23.80;67.20;;;;;;4971856;28;20477;-70
2022/07/29 12:08:27;;;;;;;3.13;2.83;;;23.80;67.10;;;;;;4972371;28;21012;-70
2022/07/29 12:10:54;;;;;;;4.47;2.90;;;23.80;67.20;;;;;;4972396;28;20470;-69
2022/07/29 12:13:24;;;;;;;7.77;3.00;;;23.80;67.10;;;;;;4941840;28;20438;-69
2022/07/29 12:15:57;;;;;;;2.93;2.50;;;23.80;66.90;;;;;;4972425;28;20472;-68
2022/07/29 12:18:40;;;;;;;3.30;2.73;;;23.80;66.80;;;;;;4967056;28;20410;-70
2022/07/29 12:21:08;;;;;;;3.30;2.50;;;23.80;66.70;;;;;;4970680;28;21010;-70
2022/07/29 12:23:34;;;;;;;7.00;3.20;;;23.80;66.60;;;;;;4953513;29;20901;-69
2022/07/29 12:26:00;;;;;;;2.77;2.50;;;23.80;66.80;;;;;;4944860;28;20556;-69
2022/07/29 12:28:27;;;;;;;3.10;2.50;;;23.90;66.90;;;;;;4954026;28;20434;-71
2022/07/29 12:30:55;;;;;;;4.10;2.53;;;23.90;66.70;;;;;;4972809;28;20476;-70
2022/07/29 12:33:28;;;;;;;4.50;2.83;;;23.90;66.60;;;;;;4952527;29;20446;-70
2022/07/29 12:36:01;;;;;;;2.77;2.50;;;23.90;66.70;;;;;;4970976;28;20505;-72
2022/07/29 12:38:28;;;;;;;2.90;2.30;;;23.90;66.70;;;;;;4954886;28;21030;-71
2022/07/29 12:40:59;;;;;;;4.67;3.10;;;23.90;66.60;;;;;;4970458;28;20669;-70
2022/07/29 12:43:26;;;;;;;3.93;2.93;;;23.90;66.60;;;;;;4970158;28;20452;-70
2022/07/29 12:45:56;;;;;;;5.00;3.00;;;23.90;66.50;;;;;;4951735;29;20501;-69
2022/07/29 12:48:45;;;;;;;3.50;2.60;;;23.90;66.40;;;;;;4957813;28;20414;-70
2022/07/29 12:51:20;;;;;;;4.10;2.77;;;23.90;66.40;;;;;;4971044;28;20466;-69
2022/07/29 12:54:15;;;;;;;6.90;2.90;;;23.90;66.40;;;;;;4970832;28;20446;-69
2022/07/29 12:56:43;;;;;;;3.40;2.67;;;24.00;66.60;;;;;;4964591;28;20446;-69
2022/07/29 12:59:22;;;;;;;2.70;2.50;;;24.00;66.80;;;;;;4948711;28;20448;-69
2022/07/29 13:01:52;;;;;;;7.23;3.13;;;24.00;66.80;;;;;;4952321;28;21006;-69
2022/07/29 13:04:33;;;;;;;3.67;3.23;;;24.00;66.70;;;;;;4950962;29;20852;-69
2022/07/29 13:07:07;;;;;;;3.60;3.10;;;24.00;66.70;;;;;;4937129;28;20483;-69
2022/07/29 13:10:35;;;;;;;2.80;2.60;;;24.00;66.70;;;;;;4972152;28;20928;-71
2022/07/29 13:13:10;;;;;;;4.47;3.03;;;24.10;66.70;;;;;;4951739;28;20449;-69